sensor_id;sensor_type;location;lat;lon;timestamp;P1;durP1;ratioP1;P2;durP2;ratioP2
49223;SDS011;35050;51.316;5.994;2023-05-10T00:00:11;2.40;;;2.20;;
49223;SDS011;35050;51.316;5.994;2023-05-10T00:02:37;1.98;;;1.88;;
49223;SDS011;35050;51.316;5.994;2023-05-10T00:05:03;2.30;;;2.10;;
49223;SDS011;35050;51.316;5.994;2023-05-10T00:07:30;1.73;;;1.60;;
49223;SDS011;35050;51.316;5.994;2023-05-10T00:09:55;2.08;;;1.88;;
49223;SDS011;35050;51.316;5.994;2023-05-10T00:12:21;1.67;;;1.58;;
49223;SDS011;35050;51.316;5.994;2023-05-10T00:14:47;2.20;;;1.73;;
49223;SDS011;35050;51.316;5.994;2023-05-10T00:17:13;1.85;;;1.52;;
49223;SDS011;35050;51.316;5.994;2023-05-10T00:19:39;2.05;;;1.60;;
49223;SDS011;35050;51.316;5.994;2023-05-10T00:22:04;1.50;;;1.40;;
49223;SDS011;35050;51.316;5.994;2023-05-10T00:24:30;4.35;;;1.60;;
49223;SDS011;35050;51.316;5.994;2023-05-10T00:26:55;1.70;;;1.55;;
49223;SDS011;35050;51.316;5.994;2023-05-10T00:29:21;1.40;;;1.30;;
49223;SDS011;35050;51.316;5.994;2023-05-10T00:31:47;1.88;;;1.60;;
49223;SDS011;35050;51.316;5.994;2023-05-10T00:34:12;1.90;;;1.70;;
49223;SDS011;35050;51.316;5.994;2023-05-10T00:36:38;2.03;;;1.70;;
49223;SDS011;35050;51.316;5.994;2023-05-10T00:39:03;1.70;;;1.50;;
49223;SDS011;35050;51.316;5.994;2023-05-10T00:41:29;1.90;;;1.52;;
49223;SDS011;35050;51.316;5.994;2023-05-10T00:43:58;1.60;;;1.50;;
49223;SDS011;35050;51.316;5.994;2023-05-10T00:46:23;1.50;;;1.40;;
49223;SDS011;35050;51.316;5.994;2023-05-10T00:48:50;1.70;;;1.60;;
49223;SDS011;35050;51.316;5.994;2023-05-10T00:51:16;1.85;;;1.60;;
49223;SDS011;35050;51.316;5.994;2023-05-10T00:53:41;1.95;;;1.83;;
49223;SDS011;35050;51.316;5.994;2023-05-10T00:56:10;1.63;;;1.52;;
49223;SDS011;35050;51.316;5.994;2023-05-10T00:58:35;1.70;;;1.60;;
49223;SDS011;35050;51.316;5.994;2023-05-10T01:01:01;1.60;;;1.50;;
49223;SDS011;35050;51.316;5.994;2023-05-10T01:03:27;1.63;;;1.52;;
49223;SDS011;35050;51.316;5.994;2023-05-10T01:05:53;1.48;;;1.38;;
49223;SDS011;35050;51.316;5.994;2023-05-10T01:08:18;1.73;;;1.63;;
49223;SDS011;35050;51.316;5.994;2023-05-10T01:10:45;2.72;;;1.45;;
49223;SDS011;35050;51.316;5.994;2023-05-10T01:13:11;1.55;;;1.45;;
49223;SDS011;35050;51.316;5.994;2023-05-10T01:15:38;1.60;;;1.50;;
49223;SDS011;35050;51.316;5.994;2023-05-10T01:18:04;1.73;;;1.60;;
49223;SDS011;35050;51.316;5.994;2023-05-10T01:20:33;2.45;;;1.80;;
49223;SDS011;35050;51.316;5.994;2023-05-10T01:34:42;3.83;;;3.00;;
49223;SDS011;35050;51.316;5.994;2023-05-10T01:37:19;2.90;;;2.70;;
49223;SDS011;35050;51.316;5.994;2023-05-10T01:39:49;2.78;;;2.58;;
49223;SDS011;35050;51.316;5.994;2023-05-10T01:42:26;2.60;;;2.40;;
49223;SDS011;35050;51.316;5.994;2023-05-10T01:45:00;3.75;;;2.78;;
49223;SDS011;35050;51.316;5.994;2023-05-10T01:47:35;3.10;;;2.85;;
49223;SDS011;35050;51.316;5.994;2023-05-10T01:50:06;3.10;;;2.83;;
49223;SDS011;35050;51.316;5.994;2023-05-10T01:52:42;2.88;;;2.60;;
49223;SDS011;35050;51.316;5.994;2023-05-10T01:55:14;3.20;;;2.90;;
49223;SDS011;35050;51.316;5.994;2023-05-10T01:57:42;3.67;;;3.38;;
49223;SDS011;35050;51.316;5.994;2023-05-10T02:00:09;3.58;;;3.28;;
49223;SDS011;35050;51.316;5.994;2023-05-10T02:02:37;3.42;;;3.13;;
49223;SDS011;35050;51.316;5.994;2023-05-10T02:05:07;3.80;;;3.05;;
49223;SDS011;35050;51.316;5.994;2023-05-10T02:07:35;4.53;;;3.15;;
49223;SDS011;35050;51.316;5.994;2023-05-10T02:10:05;3.20;;;2.90;;
49223;SDS011;35050;51.316;5.994;2023-05-10T02:12:36;3.95;;;3.50;;
49223;SDS011;35050;51.316;5.994;2023-05-10T02:15:04;4.47;;;4.07;;
49223;SDS011;35050;51.316;5.994;2023-05-10T02:17:32;4.57;;;4.18;;
49223;SDS011;35050;51.316;5.994;2023-05-10T02:19:59;4.28;;;3.88;;
49223;SDS011;35050;51.316;5.994;2023-05-10T02:22:26;4.88;;;4.45;;
49223;SDS011;35050;51.316;5.994;2023-05-10T02:24:57;4.50;;;4.10;;
49223;SDS011;35050;51.316;5.994;2023-05-10T02:27:24;6.10;;;5.40;;
49223;SDS011;35050;51.316;5.994;2023-05-10T02:29:52;5.80;;;5.20;;
49223;SDS011;35050;51.316;5.994;2023-05-10T02:32:19;5.75;;;5.15;;
49223;SDS011;35050;51.316;5.994;2023-05-10T02:34:46;6.97;;;6.18;;
49223;SDS011;35050;51.316;5.994;2023-05-10T02:37:16;6.68;;;5.95;;
49223;SDS011;35050;51.316;5.994;2023-05-10T02:39:46;6.28;;;5.68;;
49223;SDS011;35050;51.316;5.994;2023-05-10T02:42:15;9.18;;;8.07;;
49223;SDS011;35050;51.316;5.994;2023-05-10T02:44:43;11.27;;;9.43;;
49223;SDS011;35050;51.316;5.994;2023-05-10T02:47:12;11.00;;;9.82;;
49223;SDS011;35050;51.316;5.994;2023-05-10T02:49:38;10.60;;;9.13;;
49223;SDS011;35050;51.316;5.994;2023-05-10T02:52:04;13.73;;;11.48;;
49223;SDS011;35050;51.316;5.994;2023-05-10T02:54:36;16.52;;;13.05;;
49223;SDS011;35050;51.316;5.994;2023-05-10T02:57:08;15.82;;;13.10;;
49223;SDS011;35050;51.316;5.994;2023-05-10T02:59:40;12.82;;;10.57;;
49223;SDS011;35050;51.316;5.994;2023-05-10T03:02:07;14.15;;;11.95;;
49223;SDS011;35050;51.316;5.994;2023-05-10T03:04:34;17.33;;;13.18;;
49223;SDS011;35050;51.316;5.994;2023-05-10T03:06:59;20.00;;;14.80;;
49223;SDS011;35050;51.316;5.994;2023-05-10T03:09:25;19.77;;;14.98;;
49223;SDS011;35050;51.316;5.994;2023-05-10T03:17:29;13.05;;;10.80;;
49223;SDS011;35050;51.316;5.994;2023-05-10T03:20:16;15.73;;;13.70;;
49223;SDS011;35050;51.316;5.994;2023-05-10T03:22:51;18.05;;;15.00;;
49223;SDS011;35050;51.316;5.994;2023-05-10T03:25:23;15.48;;;12.88;;
49223;SDS011;35050;51.316;5.994;2023-05-10T03:27:49;19.83;;;16.25;;
49223;SDS011;35050;51.316;5.994;2023-05-10T03:30:16;18.35;;;14.52;;
49223;SDS011;35050;51.316;5.994;2023-05-10T03:32:43;19.27;;;13.93;;
49223;SDS011;35050;51.316;5.994;2023-05-10T03:35:09;18.55;;;14.35;;
49223;SDS011;35050;51.316;5.994;2023-05-10T03:37:37;17.10;;;13.10;;
49223;SDS011;35050;51.316;5.994;2023-05-10T03:40:03;14.68;;;12.77;;
49223;SDS011;35050;51.316;5.994;2023-05-10T03:42:29;18.52;;;13.32;;
49223;SDS011;35050;51.316;5.994;2023-05-10T03:44:55;19.63;;;14.98;;
49223;SDS011;35050;51.316;5.994;2023-05-10T03:47:21;18.60;;;14.38;;
49223;SDS011;35050;51.316;5.994;2023-05-10T03:49:46;15.10;;;11.80;;
49223;SDS011;35050;51.316;5.994;2023-05-10T03:52:12;19.08;;;14.02;;
49223;SDS011;35050;51.316;5.994;2023-05-10T03:54:37;15.93;;;12.90;;
49223;SDS011;35050;51.316;5.994;2023-05-10T03:57:03;14.90;;;11.57;;
49223;SDS011;35050;51.316;5.994;2023-05-10T03:59:29;15.70;;;12.50;;
49223;SDS011;35050;51.316;5.994;2023-05-10T04:01:55;17.80;;;13.23;;
49223;SDS011;35050;51.316;5.994;2023-05-10T04:04:21;17.23;;;12.75;;
49223;SDS011;35050;51.316;5.994;2023-05-10T04:06:48;15.55;;;12.18;;
49223;SDS011;35050;51.316;5.994;2023-05-10T04:09:13;17.73;;;12.77;;
49223;SDS011;35050;51.316;5.994;2023-05-10T04:11:39;16.85;;;13.05;;
49223;SDS011;35050;51.316;5.994;2023-05-10T04:14:04;18.63;;;13.00;;
49223;SDS011;35050;51.316;5.994;2023-05-10T04:16:30;14.43;;;11.10;;
49223;SDS011;35050;51.316;5.994;2023-05-10T04:18:56;19.67;;;13.40;;
49223;SDS011;35050;51.316;5.994;2023-05-10T04:21:22;20.20;;;14.38;;
49223;SDS011;35050;51.316;5.994;2023-05-10T04:23:48;18.20;;;13.05;;
49223;SDS011;35050;51.316;5.994;2023-05-10T04:26:13;18.55;;;13.80;;
49223;SDS011;35050;51.316;5.994;2023-05-10T04:28:39;19.38;;;14.18;;
49223;SDS011;35050;51.316;5.994;2023-05-10T04:31:05;20.85;;;14.68;;
49223;SDS011;35050;51.316;5.994;2023-05-10T04:33:33;24.63;;;16.92;;
49223;SDS011;35050;51.316;5.994;2023-05-10T04:35:59;29.00;;;19.02;;
49223;SDS011;35050;51.316;5.994;2023-05-10T04:38:24;28.77;;;18.83;;
49223;SDS011;35050;51.316;5.994;2023-05-10T04:40:50;26.73;;;18.27;;
49223;SDS011;35050;51.316;5.994;2023-05-10T04:43:16;25.05;;;17.65;;
49223;SDS011;35050;51.316;5.994;2023-05-10T04:45:42;26.63;;;18.33;;
49223;SDS011;35050;51.316;5.994;2023-05-10T04:48:07;23.27;;;16.38;;
49223;SDS011;35050;51.316;5.994;2023-05-10T04:50:33;26.55;;;17.80;;
49223;SDS011;35050;51.316;5.994;2023-05-10T04:52:58;32.65;;;20.65;;
49223;SDS011;35050;51.316;5.994;2023-05-10T04:55:24;23.45;;;16.92;;
49223;SDS011;35050;51.316;5.994;2023-05-10T04:57:51;26.20;;;17.80;;
49223;SDS011;35050;51.316;5.994;2023-05-10T05:00:17;25.30;;;17.45;;
49223;SDS011;35050;51.316;5.994;2023-05-10T05:02:43;22.20;;;15.40;;
49223;SDS011;35050;51.316;5.994;2023-05-10T05:05:12;22.80;;;15.25;;
49223;SDS011;35050;51.316;5.994;2023-05-10T05:07:38;19.70;;;13.02;;
49223;SDS011;35050;51.316;5.994;2023-05-10T05:10:04;22.50;;;14.48;;
49223;SDS011;35050;51.316;5.994;2023-05-10T05:12:31;24.50;;;16.10;;
49223;SDS011;35050;51.316;5.994;2023-05-10T05:14:56;23.70;;;15.38;;
49223;SDS011;35050;51.316;5.994;2023-05-10T05:17:22;24.45;;;16.27;;
49223;SDS011;35050;51.316;5.994;2023-05-10T05:19:48;24.10;;;15.38;;
49223;SDS011;35050;51.316;5.994;2023-05-10T05:22:13;27.20;;;17.02;;
49223;SDS011;35050;51.316;5.994;2023-05-10T05:24:39;23.77;;;15.23;;
49223;SDS011;35050;51.316;5.994;2023-05-10T05:27:05;18.45;;;12.50;;
49223;SDS011;35050;51.316;5.994;2023-05-10T05:29:31;20.15;;;13.43;;
49223;SDS011;35050;51.316;5.994;2023-05-10T05:31:56;19.05;;;12.55;;
49223;SDS011;35050;51.316;5.994;2023-05-10T05:34:22;20.80;;;13.45;;
49223;SDS011;35050;51.316;5.994;2023-05-10T05:36:49;26.05;;;15.88;;
49223;SDS011;35050;51.316;5.994;2023-05-10T05:39:15;23.52;;;15.48;;
49223;SDS011;35050;51.316;5.994;2023-05-10T05:41:40;19.05;;;13.00;;
49223;SDS011;35050;51.316;5.994;2023-05-10T05:44:06;17.73;;;12.70;;
49223;SDS011;35050;51.316;5.994;2023-05-10T05:46:31;22.20;;;14.82;;
49223;SDS011;35050;51.316;5.994;2023-05-10T05:48:57;20.50;;;13.95;;
49223;SDS011;35050;51.316;5.994;2023-05-10T05:51:23;22.35;;;14.85;;
49223;SDS011;35050;51.316;5.994;2023-05-10T05:53:48;20.30;;;14.20;;
49223;SDS011;35050;51.316;5.994;2023-05-10T05:56:14;20.63;;;14.35;;
49223;SDS011;35050;51.316;5.994;2023-05-10T05:58:40;23.30;;;14.43;;
49223;SDS011;35050;51.316;5.994;2023-05-10T06:01:05;20.08;;;13.95;;
49223;SDS011;35050;51.316;5.994;2023-05-10T06:03:31;19.38;;;13.27;;
49223;SDS011;35050;51.316;5.994;2023-05-10T06:05:57;20.00;;;14.20;;
49223;SDS011;35050;51.316;5.994;2023-05-10T06:08:23;24.10;;;16.33;;
49223;SDS011;35050;51.316;5.994;2023-05-10T06:10:48;24.48;;;16.83;;
49223;SDS011;35050;51.316;5.994;2023-05-10T06:13:14;20.15;;;14.15;;
49223;SDS011;35050;51.316;5.994;2023-05-10T06:15:40;27.15;;;18.67;;
49223;SDS011;35050;51.316;5.994;2023-05-10T06:18:06;26.77;;;18.63;;
49223;SDS011;35050;51.316;5.994;2023-05-10T06:20:31;28.58;;;18.80;;
49223;SDS011;35050;51.316;5.994;2023-05-10T06:22:57;25.30;;;17.05;;
49223;SDS011;35050;51.316;5.994;2023-05-10T06:25:23;25.90;;;19.00;;
49223;SDS011;35050;51.316;5.994;2023-05-10T06:27:49;24.25;;;16.27;;
49223;SDS011;35050;51.316;5.994;2023-05-10T06:30:14;22.85;;;15.98;;
49223;SDS011;35050;51.316;5.994;2023-05-10T06:32:40;22.75;;;16.25;;
49223;SDS011;35050;51.316;5.994;2023-05-10T06:35:08;20.83;;;14.25;;
49223;SDS011;35050;51.316;5.994;2023-05-10T06:37:34;17.88;;;13.18;;
49223;SDS011;35050;51.316;5.994;2023-05-10T06:40:00;17.73;;;13.73;;
49223;SDS011;35050;51.316;5.994;2023-05-10T06:42:25;17.83;;;12.30;;
49223;SDS011;35050;51.316;5.994;2023-05-10T06:44:52;17.98;;;13.70;;
49223;SDS011;35050;51.316;5.994;2023-05-10T06:47:18;16.70;;;13.18;;
49223;SDS011;35050;51.316;5.994;2023-05-10T06:49:43;17.48;;;13.18;;
49223;SDS011;35050;51.316;5.994;2023-05-10T06:52:09;18.92;;;14.32;;
49223;SDS011;35050;51.316;5.994;2023-05-10T06:54:34;13.40;;;11.45;;
49223;SDS011;35050;51.316;5.994;2023-05-10T06:57:00;17.95;;;13.13;;
49223;SDS011;35050;51.316;5.994;2023-05-10T06:59:27;16.92;;;13.77;;
49223;SDS011;35050;51.316;5.994;2023-05-10T07:01:53;15.68;;;11.70;;
49223;SDS011;35050;51.316;5.994;2023-05-10T07:04:19;19.10;;;14.27;;
49223;SDS011;35050;51.316;5.994;2023-05-10T07:06:44;16.23;;;12.65;;
49223;SDS011;35050;51.316;5.994;2023-05-10T07:09:11;17.40;;;13.07;;
49223;SDS011;35050;51.316;5.994;2023-05-10T07:11:38;15.00;;;12.05;;
49223;SDS011;35050;51.316;5.994;2023-05-10T07:14:03;15.27;;;12.20;;
49223;SDS011;35050;51.316;5.994;2023-05-10T07:16:30;18.60;;;13.25;;
49223;SDS011;35050;51.316;5.994;2023-05-10T07:18:55;16.17;;;11.55;;
49223;SDS011;35050;51.316;5.994;2023-05-10T07:21:21;12.32;;;10.52;;
49223;SDS011;35050;51.316;5.994;2023-05-10T07:23:49;10.80;;;9.43;;
49223;SDS011;35050;51.316;5.994;2023-05-10T07:26:15;11.52;;;8.40;;
49223;SDS011;35050;51.316;5.994;2023-05-10T07:28:41;12.30;;;9.07;;
49223;SDS011;35050;51.316;5.994;2023-05-10T07:31:07;12.13;;;8.70;;
49223;SDS011;35050;51.316;5.994;2023-05-10T07:33:32;31.58;;;11.88;;
49223;SDS011;35050;51.316;5.994;2023-05-10T07:35:58;10.90;;;9.35;;
49223;SDS011;35050;51.316;5.994;2023-05-10T07:38:23;12.20;;;9.70;;
49223;SDS011;35050;51.316;5.994;2023-05-10T07:40:49;14.32;;;10.73;;
49223;SDS011;35050;51.316;5.994;2023-05-10T07:43:15;11.32;;;9.10;;
49223;SDS011;35050;51.316;5.994;2023-05-10T07:45:40;10.25;;;8.45;;
49223;SDS011;35050;51.316;5.994;2023-05-10T07:48:06;14.45;;;9.40;;
49223;SDS011;35050;51.316;5.994;2023-05-10T07:50:32;12.15;;;9.85;;
49223;SDS011;35050;51.316;5.994;2023-05-10T07:52:57;10.68;;;8.30;;
49223;SDS011;35050;51.316;5.994;2023-05-10T07:55:23;11.32;;;9.70;;
49223;SDS011;35050;51.316;5.994;2023-05-10T07:57:49;12.20;;;9.55;;
49223;SDS011;35050;51.316;5.994;2023-05-10T08:00:17;9.38;;;7.82;;
49223;SDS011;35050;51.316;5.994;2023-05-10T08:02:44;12.63;;;9.82;;
49223;SDS011;35050;51.316;5.994;2023-05-10T08:05:09;12.07;;;10.15;;
49223;SDS011;35050;51.316;5.994;2023-05-10T08:07:35;11.63;;;9.15;;
49223;SDS011;35050;51.316;5.994;2023-05-10T08:10:02;11.18;;;9.57;;
49223;SDS011;35050;51.316;5.994;2023-05-10T08:12:28;14.98;;;11.13;;
49223;SDS011;35050;51.316;5.994;2023-05-10T08:14:53;13.43;;;10.27;;
49223;SDS011;35050;51.316;5.994;2023-05-10T08:17:19;11.75;;;10.15;;
49223;SDS011;35050;51.316;5.994;2023-05-10T08:19:45;14.77;;;10.02;;
49223;SDS011;35050;51.316;5.994;2023-05-10T08:22:10;12.68;;;10.18;;
49223;SDS011;35050;51.316;5.994;2023-05-10T08:24:36;19.15;;;12.57;;
49223;SDS011;35050;51.316;5.994;2023-05-10T08:27:04;15.52;;;12.52;;
49223;SDS011;35050;51.316;5.994;2023-05-10T08:29:30;19.33;;;12.60;;
49223;SDS011;35050;51.316;5.994;2023-05-10T08:31:56;13.75;;;10.60;;
49223;SDS011;35050;51.316;5.994;2023-05-10T08:34:22;12.05;;;10.23;;
49223;SDS011;35050;51.316;5.994;2023-05-10T08:36:48;11.38;;;9.02;;
49223;SDS011;35050;51.316;5.994;2023-05-10T08:39:14;10.90;;;9.07;;
49223;SDS011;35050;51.316;5.994;2023-05-10T08:41:39;12.77;;;9.48;;
49223;SDS011;35050;51.316;5.994;2023-05-10T08:44:09;12.38;;;9.98;;
49223;SDS011;35050;51.316;5.994;2023-05-10T08:46:36;11.90;;;9.85;;
49223;SDS011;35050;51.316;5.994;2023-05-10T08:49:04;13.73;;;10.57;;
49223;SDS011;35050;51.316;5.994;2023-05-10T08:51:35;14.25;;;12.07;;
49223;SDS011;35050;51.316;5.994;2023-05-10T08:54:02;15.05;;;12.40;;
49223;SDS011;35050;51.316;5.994;2023-05-10T08:56:29;14.65;;;11.15;;
49223;SDS011;35050;51.316;5.994;2023-05-10T08:58:55;11.25;;;9.90;;
49223;SDS011;35050;51.316;5.994;2023-05-10T09:01:21;14.70;;;9.95;;
49223;SDS011;35050;51.316;5.994;2023-05-10T09:03:48;11.18;;;8.93;;
49223;SDS011;35050;51.316;5.994;2023-05-10T09:06:15;9.52;;;8.27;;
49223;SDS011;35050;51.316;5.994;2023-05-10T09:08:41;12.43;;;8.50;;
49223;SDS011;35050;51.316;5.994;2023-05-10T09:11:08;10.40;;;7.05;;
49223;SDS011;35050;51.316;5.994;2023-05-10T09:13:35;9.68;;;7.90;;
49223;SDS011;35050;51.316;5.994;2023-05-10T09:16:01;10.68;;;7.75;;
49223;SDS011;35050;51.316;5.994;2023-05-10T09:18:28;10.57;;;7.72;;
49223;SDS011;35050;51.316;5.994;2023-05-10T09:20:54;9.30;;;7.03;;
49223;SDS011;35050;51.316;5.994;2023-05-10T09:23:19;11.02;;;7.22;;
49223;SDS011;35050;51.316;5.994;2023-05-10T09:25:45;7.78;;;6.82;;
49223;SDS011;35050;51.316;5.994;2023-05-10T09:28:11;7.03;;;6.20;;
49223;SDS011;35050;51.316;5.994;2023-05-10T09:30:37;7.90;;;6.25;;
49223;SDS011;35050;51.316;5.994;2023-05-10T09:33:03;9.20;;;7.63;;
49223;SDS011;35050;51.316;5.994;2023-05-10T09:35:30;10.38;;;8.63;;
49223;SDS011;35050;51.316;5.994;2023-05-10T09:38:03;11.40;;;7.72;;
49223;SDS011;35050;51.316;5.994;2023-05-10T09:40:30;9.73;;;7.80;;
49223;SDS011;35050;51.316;5.994;2023-05-10T09:42:57;10.85;;;8.57;;
49223;SDS011;35050;51.316;5.994;2023-05-10T09:45:25;12.02;;;8.95;;
49223;SDS011;35050;51.316;5.994;2023-05-10T09:47:55;9.70;;;8.30;;
49223;SDS011;35050;51.316;5.994;2023-05-10T09:50:22;8.35;;;7.43;;
49223;SDS011;35050;51.316;5.994;2023-05-10T09:52:50;7.30;;;6.43;;
49223;SDS011;35050;51.316;5.994;2023-05-10T09:55:18;10.68;;;8.65;;
49223;SDS011;35050;51.316;5.994;2023-05-10T09:57:48;12.02;;;9.18;;
49223;SDS011;35050;51.316;5.994;2023-05-10T10:00:23;11.38;;;8.65;;
49223;SDS011;35050;51.316;5.994;2023-05-10T10:02:58;13.98;;;9.77;;
49223;SDS011;35050;51.316;5.994;2023-05-10T10:05:35;13.63;;;10.85;;
49223;SDS011;35050;51.316;5.994;2023-05-10T10:08:04;10.98;;;9.25;;
49223;SDS011;35050;51.316;5.994;2023-05-10T10:10:30;9.43;;;7.97;;
49223;SDS011;35050;51.316;5.994;2023-05-10T10:12:57;12.27;;;9.02;;
49223;SDS011;35050;51.316;5.994;2023-05-10T10:15:23;8.27;;;7.22;;
49223;SDS011;35050;51.316;5.994;2023-05-10T10:17:50;7.68;;;6.75;;
49223;SDS011;35050;51.316;5.994;2023-05-10T10:20:17;9.30;;;7.78;;
49223;SDS011;35050;51.316;5.994;2023-05-10T10:22:43;7.03;;;6.15;;
49223;SDS011;35050;51.316;5.994;2023-05-10T10:25:12;7.95;;;6.93;;
49223;SDS011;35050;51.316;5.994;2023-05-10T10:36:05;9.27;;;7.78;;
49223;SDS011;35050;51.316;5.994;2023-05-10T10:38:54;10.18;;;7.93;;
49223;SDS011;35050;51.316;5.994;2023-05-10T10:41:28;9.00;;;7.05;;
49223;SDS011;35050;51.316;5.994;2023-05-10T10:44:22;8.95;;;7.47;;
49223;SDS011;35050;51.316;5.994;2023-05-10T10:49:51;6.88;;;6.20;;
49223;SDS011;35050;51.316;5.994;2023-05-10T10:52:38;7.47;;;5.90;;
49223;SDS011;35050;51.316;5.994;2023-05-10T10:57:57;6.18;;;5.50;;
49223;SDS011;35050;51.316;5.994;2023-05-10T11:03:04;5.63;;;5.10;;
49223;SDS011;35050;51.316;5.994;2023-05-10T11:05:39;6.65;;;6.05;;
49223;SDS011;35050;51.316;5.994;2023-05-10T11:10:40;7.95;;;6.05;;
49223;SDS011;35050;51.316;5.994;2023-05-10T11:13:16;6.07;;;5.30;;
49223;SDS011;35050;51.316;5.994;2023-05-10T11:15:54;6.53;;;5.55;;
49223;SDS011;35050;51.316;5.994;2023-05-10T11:20:56;10.63;;;9.18;;
49223;SDS011;35050;51.316;5.994;2023-05-10T11:23:31;10.63;;;8.00;;
49223;SDS011;35050;51.316;5.994;2023-05-10T11:25:58;9.00;;;8.05;;
49223;SDS011;35050;51.316;5.994;2023-05-10T11:28:26;9.82;;;7.68;;
49223;SDS011;35050;51.316;5.994;2023-05-10T11:30:52;8.52;;;7.13;;
49223;SDS011;35050;51.316;5.994;2023-05-10T11:33:18;9.77;;;8.43;;
49223;SDS011;35050;51.316;5.994;2023-05-10T11:35:44;9.27;;;8.27;;
49223;SDS011;35050;51.316;5.994;2023-05-10T11:38:11;10.35;;;8.90;;
49223;SDS011;35050;51.316;5.994;2023-05-10T11:40:38;11.88;;;10.52;;
49223;SDS011;35050;51.316;5.994;2023-05-10T11:43:05;11.02;;;9.93;;
49223;SDS011;35050;51.316;5.994;2023-05-10T11:45:33;14.85;;;12.48;;
49223;SDS011;35050;51.316;5.994;2023-05-10T11:47:59;14.55;;;12.93;;
49223;SDS011;35050;51.316;5.994;2023-05-10T11:50:26;12.40;;;11.10;;
49223;SDS011;35050;51.316;5.994;2023-05-10T11:52:55;11.98;;;10.75;;
49223;SDS011;35050;51.316;5.994;2023-05-10T11:55:22;13.57;;;11.52;;
49223;SDS011;35050;51.316;5.994;2023-05-10T11:57:53;11.32;;;9.98;;
49223;SDS011;35050;51.316;5.994;2023-05-10T12:00:19;11.52;;;10.25;;
49223;SDS011;35050;51.316;5.994;2023-05-10T12:02:45;11.80;;;10.18;;
49223;SDS011;35050;51.316;5.994;2023-05-10T12:05:11;9.63;;;8.63;;
49223;SDS011;35050;51.316;5.994;2023-05-10T12:07:37;10.15;;;9.07;;
49223;SDS011;35050;51.316;5.994;2023-05-10T12:10:07;11.60;;;10.10;;
49223;SDS011;35050;51.316;5.994;2023-05-10T12:12:37;8.05;;;7.20;;
49223;SDS011;35050;51.316;5.994;2023-05-10T12:15:04;9.90;;;8.93;;
49223;SDS011;35050;51.316;5.994;2023-05-10T12:17:31;10.57;;;9.48;;
49223;SDS011;35050;51.316;5.994;2023-05-10T12:22:45;9.98;;;8.75;;
49223;SDS011;35050;51.316;5.994;2023-05-10T12:25:11;10.57;;;8.90;;
49223;SDS011;35050;51.316;5.994;2023-05-10T12:27:37;7.65;;;6.90;;
49223;SDS011;35050;51.316;5.994;2023-05-10T12:30:03;7.65;;;6.85;;
49223;SDS011;35050;51.316;5.994;2023-05-10T12:32:38;9.10;;;7.95;;
49223;SDS011;35050;51.316;5.994;2023-05-10T12:35:04;7.93;;;7.13;;
49223;SDS011;35050;51.316;5.994;2023-05-10T12:37:31;8.98;;;7.53;;
49223;SDS011;35050;51.316;5.994;2023-05-10T12:40:00;8.00;;;6.80;;
49223;SDS011;35050;51.316;5.994;2023-05-10T12:42:27;6.65;;;5.95;;
49223;SDS011;35050;51.316;5.994;2023-05-10T12:44:56;6.70;;;5.88;;
49223;SDS011;35050;51.316;5.994;2023-05-10T12:47:22;8.30;;;6.30;;
49223;SDS011;35050;51.316;5.994;2023-05-10T12:49:48;6.43;;;5.82;;
49223;SDS011;35050;51.316;5.994;2023-05-10T12:52:13;9.32;;;6.30;;
49223;SDS011;35050;51.316;5.994;2023-05-10T12:54:39;5.00;;;4.60;;
49223;SDS011;35050;51.316;5.994;2023-05-10T12:57:04;9.38;;;7.53;;
49223;SDS011;35050;51.316;5.994;2023-05-10T12:59:30;8.52;;;7.15;;
49223;SDS011;35050;51.316;5.994;2023-05-10T13:01:56;7.85;;;7.10;;
49223;SDS011;35050;51.316;5.994;2023-05-10T13:04:22;8.35;;;7.53;;
49223;SDS011;35050;51.316;5.994;2023-05-10T13:06:48;6.80;;;6.00;;
49223;SDS011;35050;51.316;5.994;2023-05-10T13:09:14;6.60;;;6.00;;
49223;SDS011;35050;51.316;5.994;2023-05-10T13:11:40;5.97;;;5.38;;
49223;SDS011;35050;51.316;5.994;2023-05-10T13:14:06;6.88;;;6.18;;
49223;SDS011;35050;51.316;5.994;2023-05-10T13:16:31;6.57;;;5.70;;
49223;SDS011;35050;51.316;5.994;2023-05-10T13:18:57;4.93;;;4.43;;
49223;SDS011;35050;51.316;5.994;2023-05-10T13:21:23;4.63;;;3.88;;
49223;SDS011;35050;51.316;5.994;2023-05-10T13:23:50;5.05;;;4.55;;
49223;SDS011;35050;51.316;5.994;2023-05-10T13:26:16;5.28;;;4.68;;
49223;SDS011;35050;51.316;5.994;2023-05-10T13:28:41;6.68;;;5.65;;
49223;SDS011;35050;51.316;5.994;2023-05-10T13:31:08;7.70;;;5.75;;
49223;SDS011;35050;51.316;5.994;2023-05-10T13:33:33;7.25;;;6.55;;
49223;SDS011;35050;51.316;5.994;2023-05-10T13:35:59;9.00;;;6.43;;
49223;SDS011;35050;51.316;5.994;2023-05-10T13:38:25;6.32;;;5.72;;
49223;SDS011;35050;51.316;5.994;2023-05-10T13:40:50;6.32;;;5.72;;
49223;SDS011;35050;51.316;5.994;2023-05-10T13:43:18;5.75;;;4.90;;
49223;SDS011;35050;51.316;5.994;2023-05-10T13:45:44;5.22;;;4.60;;
49223;SDS011;35050;51.316;5.994;2023-05-10T13:48:09;5.68;;;5.15;;
49223;SDS011;35050;51.316;5.994;2023-05-10T13:50:35;8.75;;;5.50;;
49223;SDS011;35050;51.316;5.994;2023-05-10T13:53:01;5.65;;;5.10;;
49223;SDS011;35050;51.316;5.994;2023-05-10T13:55:26;5.40;;;4.90;;
49223;SDS011;35050;51.316;5.994;2023-05-10T13:57:52;5.10;;;4.18;;
49223;SDS011;35050;51.316;5.994;2023-05-10T14:00:18;4.80;;;4.30;;
49223;SDS011;35050;51.316;5.994;2023-05-10T14:02:45;4.65;;;4.05;;
49223;SDS011;35050;51.316;5.994;2023-05-10T14:05:10;3.80;;;3.40;;
49223;SDS011;35050;51.316;5.994;2023-05-10T14:07:36;4.45;;;4.05;;
49223;SDS011;35050;51.316;5.994;2023-05-10T14:10:06;5.53;;;4.90;;
49223;SDS011;35050;51.316;5.994;2023-05-10T14:13:09;4.88;;;3.90;;
49223;SDS011;35050;51.316;5.994;2023-05-10T14:15:35;6.03;;;5.25;;
49223;SDS011;35050;51.316;5.994;2023-05-10T14:18:01;5.68;;;5.07;;
49223;SDS011;35050;51.316;5.994;2023-05-10T14:20:26;4.60;;;4.20;;
49223;SDS011;35050;51.316;5.994;2023-05-10T14:22:52;4.97;;;4.40;;
49223;SDS011;35050;51.316;5.994;2023-05-10T14:25:18;7.45;;;6.25;;
49223;SDS011;35050;51.316;5.994;2023-05-10T14:27:43;7.07;;;6.22;;
49223;SDS011;35050;51.316;5.994;2023-05-10T14:30:09;5.82;;;5.22;;
49223;SDS011;35050;51.316;5.994;2023-05-10T14:32:35;9.43;;;6.75;;
49223;SDS011;35050;51.316;5.994;2023-05-10T14:35:01;6.88;;;5.93;;
49223;SDS011;35050;51.316;5.994;2023-05-10T14:37:27;6.80;;;5.85;;
49223;SDS011;35050;51.316;5.994;2023-05-10T14:39:53;8.85;;;5.93;;
49223;SDS011;35050;51.316;5.994;2023-05-10T14:42:19;6.55;;;5.30;;
49223;SDS011;35050;51.316;5.994;2023-05-10T14:44:44;6.53;;;4.80;;
49223;SDS011;35050;51.316;5.994;2023-05-10T14:47:10;4.80;;;4.30;;
49223;SDS011;35050;51.316;5.994;2023-05-10T14:49:35;7.38;;;4.60;;
49223;SDS011;35050;51.316;5.994;2023-05-10T14:52:01;4.35;;;3.80;;
49223;SDS011;35050;51.316;5.994;2023-05-10T14:54:28;6.03;;;4.45;;
49223;SDS011;35050;51.316;5.994;2023-05-10T14:56:53;5.60;;;4.38;;
49223;SDS011;35050;51.316;5.994;2023-05-10T14:59:20;6.15;;;4.68;;
49223;SDS011;35050;51.316;5.994;2023-05-10T15:01:45;5.75;;;4.90;;
49223;SDS011;35050;51.316;5.994;2023-05-10T15:04:11;5.35;;;4.85;;
49223;SDS011;35050;51.316;5.994;2023-05-10T15:06:38;5.40;;;4.35;;
49223;SDS011;35050;51.316;5.994;2023-05-10T15:09:04;5.30;;;4.10;;
49223;SDS011;35050;51.316;5.994;2023-05-10T15:11:29;4.43;;;3.90;;
49223;SDS011;35050;51.316;5.994;2023-05-10T15:13:55;4.43;;;4.03;;
49223;SDS011;35050;51.316;5.994;2023-05-10T15:16:21;2.88;;;2.53;;